Latest Weather Observations for Horsley Park

IDN60901

Issued at 6:21 pm EDT Sunday 28 February 2021 (issued every 10 minutes, with the page automatically refreshed every 10 minutes)

About weather observations | Map of Sydney area stations | Latest observations for Sydney area | Other Formats
Station Details ID: 067119 Name: HORSLEY PARK EQUESTRIAN CENTRE AWS Lat: -33.85 Lon: 150.86 Height: 100.0 m
Data from the previous 72 hours. | See also: Recent months at Horsley Park
Date/Time
EDT
Temp
°C
App
Temp
°C
Dew
Point
°C
Rel
Hum
%
Delta-T
°C
Wind Press
QNH
hPa
Press
MSL
hPa
Rain since
9am
mm
Dir  Spd
km/h
Gust
km/h
Spd
kts
Gust
kts
28/06:00pm 25.3 24.3 17.5 62 4.9 ESE 19 28 10 15 - - 0.0
28/05:30pm 26.4 25.3 17.2 57 5.8 ESE 19 28 10 15 - - 0.0
28/05:00pm 27.0 26.2 17.2 55 6.2 ESE 17 28 9 15 - - 0.0
28/04:30pm 27.9 27.5 17.1 51 6.8 E 15 24 8 13 - - 0.0
28/04:00pm 28.9 29.5 17.7 50 7.1 E 11 19 6 10 - - 0.0
28/03:30pm 28.5 29.0 17.4 51 7.0 E 11 19 6 10 - - 0.0
28/03:00pm 29.2 30.6 18.6 52 6.8 E 9 19 5 10 - - 0.0
28/02:30pm 29.3 30.3 18.7 52 6.9 ENE 11 20 6 11 - - 0.0
28/02:00pm 28.6 29.9 17.5 51 7.0 ENE 7 13 4 7 - - 0.0
28/01:30pm 27.9 29.2 15.2 46 7.8 N 2 9 1 5 - - 0.0
28/01:00pm 27.9 30.0 17.1 51 6.8 SSW 2 9 1 5 - - 0.0
28/12:30pm 27.4 30.1 17.8 55 6.1 CALM 0 6 0 3 - - 0.0
28/12:00pm 26.8 29.4 18.4 60 5.4 SW 2 9 1 5 - - 0.0
28/11:30am 26.5 29.2 19.4 65 4.6 N 4 7 2 4 - - 0.0
28/11:00am 25.4 28.6 19.8 71 3.6 NE 2 6 1 3 - - 0.0
28/10:30am 23.7 26.1 18.8 74 3.1 SSE 4 6 2 3 - - 0.0
28/10:00am 23.9 26.5 20.0 79 2.5 SE 6 9 3 5 - - 0.0
28/09:30am 22.4 24.8 20.1 87 1.5 S 7 13 4 7 - - 0.0
28/09:00am 21.1 23.7 20.4 96 0.5 S 7 13 4 7 - - 0.2
28/08:30am 20.0 23.0 20.0 100 0.0 SSE 4 7 2 4 - - 0.2
28/08:00am 19.8 22.3 19.8 100 0.0 SSE 6 7 3 4 - - 0.2
28/07:30am 19.4 22.5 19.4 100 0.0 SSW 2 4 1 2 - - 0.2
28/07:00am 18.6 21.3 18.6 100 0.0 S 2 4 1 2 - - 0.2
28/06:30am 19.1 21.6 19.1 100 0.0 S 4 6 2 3 - - 0.2
28/06:00am 19.1 22.4 19.1 100 0.0 CALM 0 4 0 2 - - 0.2
28/05:30am 19.1 22.0 19.1 100 0.0 SSE 2 4 1 2 - - 0.2
28/05:00am 18.5 21.5 18.5 100 0.0 CALM 0 0 0 0 - - 0.2
28/04:30am 19.0 22.3 19.0 100 0.0 CALM 0 0 0 0 - - 0.2
28/04:00am 18.5 21.4 18.2 98 0.2 CALM 0 0 0 0 - - 0.2
28/03:30am 18.4 21.3 18.1 98 0.2 CALM 0 0 0 0 - - 0.2
28/03:00am 18.6 21.5 18.1 97 0.3 CALM 0 0 0 0 - - 0.2
28/02:30am 18.4 21.1 17.8 96 0.4 CALM 0 0 0 0 - - 0.2
28/02:00am 19.1 22.0 18.3 95 0.5 CALM 0 0 0 0 - - 0.2
28/01:30am 19.5 22.5 18.5 94 0.6 CALM 0 0 0 0 - - 0.2
28/01:00am 20.0 23.2 18.8 93 0.8 CALM 0 0 0 0 - - 0.2
28/12:30am 20.2 23.4 18.9 92 0.8 CALM 0 0 0 0 - - 0.2
28/12:00am 20.2 23.3 18.7 91 0.9 CALM 0 2 0 1 - - 0.2
 
Date/Time
EDT
Temp
°C
App
Temp
°C
Dew
Point
°C
Rel
Hum
%
Delta-T
°C
Wind Press
QNH
hPa
Press
MSL
hPa
Rain since
9am
mm
Dir  Spd
km/h
Gust
km/h
Spd
kts
Gust
kts
27/11:30pm 20.6 23.8 18.9 90 1.1 CALM 0 4 0 2 - - 0.2
27/11:00pm 20.9 23.6 19.4 91 1.0 NNE 4 6 2 3 - - 0.2
27/10:30pm 20.7 23.6 19.0 90 1.1 NE 2 6 1 3 - - 0.2
27/10:00pm 20.8 23.6 18.9 89 1.2 NE 2 6 1 3 - - 0.2
27/09:30pm 20.6 23.0 18.7 89 1.2 NE 4 6 2 3 - - 0.2
27/09:00pm 20.4 22.9 18.2 87 1.4 E 2 4 1 2 - - 0.2
27/08:30pm 21.0 23.1 18.2 84 1.7 NE 4 6 2 3 - - 0.2
27/08:00pm 21.5 23.4 18.5 83 1.9 ENE 6 9 3 5 - - 0.2
27/07:30pm 21.9 23.2 18.5 81 2.1 ENE 9 13 5 7 - - 0.2
27/07:00pm 22.4 24.1 18.6 79 2.4 NE 7 11 4 6 - - 0.2
27/06:30pm 22.9 24.8 18.9 78 2.5 NE 7 11 4 6 - - 0.2
27/06:00pm 22.7 24.7 19.1 80 2.3 NE 7 9 4 5 - - 0.2
27/05:30pm 22.9 25.1 19.5 81 2.2 ENE 7 11 4 6 - - 0.2
27/05:00pm 22.7 24.5 19.5 82 2.1 NE 9 11 5 6 - - 0.2
27/04:30pm 21.8 23.3 19.0 84 1.8 NE 9 15 5 8 - - 0.2
27/04:00pm 21.9 23.7 18.7 82 2.0 NE 7 13 4 7 - - 0.2
27/03:30pm 22.7 24.9 19.7 83 1.9 E 7 9 4 5 - - 0.2
27/03:00pm 22.6 25.1 19.8 84 1.8 NE 6 11 3 6 - - 0.2
27/02:30pm 22.0 24.3 19.5 86 1.6 NNE 6 9 3 5 - - 0.2
27/02:00pm 21.3 24.7 19.4 89 1.2 CALM 0 2 0 1 - - 0.2
27/01:30pm 20.6 23.5 19.1 91 0.9 NNW 2 4 1 2 - - 0.2
27/01:00pm 20.5 23.7 19.7 95 0.5 NNE 2 6 1 3 - - 0.2
27/12:30pm 20.1 23.5 19.3 95 0.5 CALM 0 0 0 0 - - 0.2
27/12:00pm 19.8 23.0 18.8 94 0.6 CALM 0 0 0 0 - - 0.2
27/11:30am 19.8 22.9 18.6 93 0.8 CALM 0 0 0 0 - - 0.2
27/11:00am 19.4 22.3 18.2 93 0.7 CALM 0 0 0 0 - - 0.2
27/10:30am 19.5 22.3 18.8 96 0.4 SE 2 6 1 3 - - 0.2
27/10:00am 19.1 21.4 18.6 97 0.3 ESE 4 6 2 3 - - 0.2
27/09:30am 18.9 21.1 18.4 97 0.3 SSE 4 6 2 3 - - 0.2
27/09:00am 18.4 20.7 17.8 96 0.4 S 2 4 1 2 - - 0.2
27/08:30am 18.3 20.2 17.7 96 0.4 S 4 7 2 4 - - 0.2
27/08:00am 18.3 20.9 17.5 95 0.5 CALM 0 0 0 0 - - 0.2
27/07:30am 18.2 20.7 17.2 94 0.6 CALM 0 0 0 0 - - 0.0
27/07:00am 18.3 20.7 17.1 93 0.7 CALM 0 0 0 0 - - 0.0
27/06:30am 18.4 20.8 16.9 91 0.9 CALM 0 0 0 0 - - 0.0
27/06:00am 18.5 20.8 16.7 89 1.1 CALM 0 0 0 0 - - 0.0
27/05:30am 18.7 20.9 16.5 87 1.3 CALM 0 0 0 0 - - 0.0
27/05:00am 18.6 20.8 16.4 87 1.3 CALM 0 0 0 0 - - 0.0
27/04:30am 18.8 21.0 16.6 87 1.3 CALM 0 0 0 0 - - 0.0
27/04:00am 19.0 20.8 16.4 85 1.6 S 2 4 1 2 - - 0.0
27/03:30am 19.5 21.5 16.0 80 2.1 CALM 0 0 0 0 - - 0.0
27/03:00am 19.8 20.9 15.7 77 2.4 S 4 6 2 3 - - 0.0
27/02:30am 20.0 21.0 15.4 75 2.7 SE 4 6 2 3 - - 0.0
27/02:00am 20.2 21.3 15.6 75 2.7 ESE 4 7 2 4 - - 0.0
27/01:30am 20.1 20.5 15.3 74 2.8 ESE 7 11 4 6 - - 0.0
27/01:00am 20.3 20.4 15.5 74 2.9 ESE 9 15 5 8 - - 0.0
27/12:30am 20.4 20.5 15.6 74 2.9 ESE 9 13 5 7 - - 0.0
27/12:00am 20.5 20.6 15.5 73 3.0 E 9 13 5 7 - - 0.0
 
Date/Time
EDT
Temp
°C
App
Temp
°C
Dew
Point
°C
Rel
Hum
%
Delta-T
°C
Wind Press
QNH
hPa
Press
MSL
hPa
Rain since
9am
mm
Dir  Spd
km/h
Gust
km/h
Spd
kts
Gust
kts
26/11:30pm 20.6 20.7 15.6 73 3.0 ESE 9 15 5 8 - - 0.0
26/11:00pm 20.7 20.5 15.7 73 3.0 ESE 11 20 6 11 - - 0.0
26/10:30pm 20.8 20.3 15.8 73 3.0 ESE 13 19 7 10 - - 0.0
26/10:00pm 21.0 20.9 16.0 73 3.0 ESE 11 19 6 10 - - 0.0
26/09:30pm 20.9 20.4 15.9 73 3.0 ESE 13 22 7 12 - - 0.0
26/09:00pm 20.7 20.3 16.1 75 2.8 ESE 13 24 7 13 - - 0.0
26/08:30pm 21.1 21.4 16.1 73 3.0 SE 9 19 5 10 - - 0.0
26/08:00pm 21.4 20.7 16.4 73 3.0 SE 15 20 8 11 - - 0.0
26/07:30pm 21.6 21.2 16.1 71 3.3 SE 13 24 7 13 - - 0.0
26/07:00pm 21.9 21.1 16.0 69 3.6 SE 15 22 8 12 - - 0.0
26/06:30pm 22.4 22.0 16.2 68 3.8 SE 13 24 7 13 - - 0.0
26/06:00pm 22.9 21.2 16.2 66 4.1 SE 20 32 11 17 - - 0.0
26/05:30pm 24.2 22.6 16.5 62 4.7 SE 20 35 11 19 - - 0.0
26/05:00pm 24.6 22.1 15.2 55 5.7 SE 22 33 12 18 - - 0.0
26/04:30pm 25.8 23.8 16.4 56 5.8 SE 22 32 12 17 - - 0.0
26/04:00pm 26.0 24.0 16.5 55 5.9 ESE 22 35 12 19 - - 0.0
26/03:30pm 26.4 25.0 16.6 55 6.1 SE 19 30 10 16 - - 0.0
26/03:00pm 28.1 27.5 16.7 50 7.1 ESE 15 24 8 13 - - 0.0
26/02:30pm 29.1 28.9 12.9 37 9.6 S 6 15 3 8 - - 0.0
26/02:00pm 29.4 30.1 14.4 40 9.1 NE 4 9 2 5 - - 0.0
26/01:30pm 28.1 27.8 12.8 38 9.0 SW 6 11 3 6 - - 0.0
26/01:00pm 28.1 28.3 13.2 39 8.8 WSW 4 9 2 5 - - 0.0
26/12:30pm 27.8 28.0 13.0 40 8.7 E 4 9 2 5 - - 0.0
26/12:00pm 26.7 25.8 11.2 38 8.8 SSW 7 13 4 7 - - 0.0
26/11:30am 26.4 25.3 12.1 41 8.3 SSW 9 15 5 8 - - 0.0
26/11:00am 25.6 24.9 13.1 46 7.3 SW 9 15 5 8 - - 0.0
26/10:30am 24.4 25.5 15.6 58 5.3 SW 4 9 2 5 - - 0.0
26/10:00am 23.3 25.1 17.3 69 3.7 SE 4 7 2 4 - - 0.0
26/09:30am 22.3 24.7 18.9 81 2.2 ESE 4 6 2 3 - - 0.0
26/09:00am 20.1 21.8 18.1 88 1.2 ESE 6 9 3 5 - - 2.6
26/08:30am 18.7 21.7 18.4 98 0.2 CALM 0 0 0 0 - - 2.6
26/08:00am 18.2 20.7 18.2 100 0.0 SSW 2 4 1 2 - - 2.6
26/07:30am 16.3 18.4 16.3 100 0.0 CALM 0 0 0 0 - - 2.6
26/07:00am 15.3 17.0 15.3 100 0.0 CALM 0 0 0 0 - - 2.6
26/06:30am 14.8 16.4 14.8 100 0.0 CALM 0 0 0 0 - - 2.6
26/06:00am 15.2 16.9 15.2 100 0.0 CALM 0 6 0 3 - - 2.6
26/05:30am 15.9 17.9 15.9 100 0.0 CALM 0 0 0 0 - - 2.6
26/05:00am 16.8 18.4 16.8 100 0.0 WSW 4 7 2 4 - - 2.6
26/04:30am 16.4 18.2 16.4 100 0.0 WSW 2 4 1 2 - - 2.6
26/04:00am 16.1 18.1 16.1 100 0.0 CALM 0 2 0 1 - - 2.6
26/03:30am 16.5 18.7 16.5 100 0.0 CALM 0 4 0 2 - - 2.6
26/03:00am 16.2 18.3 16.2 100 0.0 CALM 0 0 0 0 - - 2.6
26/02:30am 16.3 18.4 16.3 100 0.0 CALM 0 0 0 0 - - 2.6
26/02:00am 16.8 19.1 16.8 100 0.0 CALM 0 0 0 0 - - 2.6
26/01:30am 16.7 19.0 16.7 100 0.0 CALM 0 0 0 0 - - 2.6
26/01:00am 16.7 18.9 16.5 99 0.1 CALM 0 0 0 0 - - 2.6
26/12:30am 16.9 19.2 16.7 99 0.1 CALM 0 0 0 0 - - 2.6
26/12:00am 16.6 18.7 16.3 98 0.2 CALM 0 0 0 0 - - 2.6
 
Date/Time
EDT
Temp
°C
App
Temp
°C
Dew
Point
°C
Rel
Hum
%
Delta-T
°C
Wind Press
QNH
hPa
Press
MSL
hPa
Rain since
9am
mm
Dir  Spd
km/h
Gust
km/h
Spd
kts
Gust
kts
25/11:30pm 16.8 18.9 16.3 97 0.3 CALM 0 0 0 0 - - 2.6
25/11:00pm 17.0 19.2 16.4 96 0.4 CALM 0 0 0 0 - - 2.6
25/10:30pm 16.9 18.9 16.1 95 0.5 CALM 0 0 0 0 - - 2.6
25/10:00pm 17.5 19.3 16.5 94 0.6 SSW 2 6 1 3 - - 2.6
25/09:30pm 17.9 20.1 16.6 92 0.8 CALM 0 0 0 0 - - 2.6
25/09:00pm 18.7 21.1 17.0 90 1.0 CALM 0 4 0 2 - - 2.6
25/08:30pm 19.1 20.4 17.2 89 1.2 SW 6 7 3 4 - - 2.6
25/08:00pm 19.9 21.5 17.9 88 1.2 N 6 9 3 5 - - 2.6
25/07:30pm 20.6 22.4 18.2 86 1.5 NNW 6 9 3 5 - - 2.6
25/07:00pm 21.1 23.5 18.9 87 1.4 NW 4 7 2 4 - - 2.6
25/06:30pm 21.2 23.8 19.3 89 1.2 NW 4 7 2 4 - - 2.6

Latest Capital City Observations: Canberra | Sydney | Melbourne | Brisbane | Adelaide | Perth | Hobart | Darwin

Other formats

Comma delimited format used in spreadsheet applications
http://www.bom.gov.au/fwo/IDN60901/IDN60901.94760.axf

JavaScript Object Notation format (JSON) in row-major order
http://www.bom.gov.au/fwo/IDN60901/IDN60901.94760.json

Data quality

Most of these data are generated automatically and are frequently updated. Quality checks on data are not normally performed. It is possible for incorrect values to appear. Refer to information at About Latest Weather Observations and please check the disclaimer before using these data.